Althea — 9HAQ7 — position and weather

sailwx.info

Track history (hours):
 
Tides and Currents Weather Stations Pressure Air Temp Water Temp Dewpoint Dewpoint Depression Visibility Wind Speed Wind Dir Waves Ship Positions

Althea

Last reported at 2016-May-28 02:28 UTC. Time now 2016-May-29 03:48 UTC.
Position N 39°03' W 009°50'.

Length 170 m; draft 9.2 m.

Type: Cargo ship. MMSI: 215047000.

Date/timePositionNaut miles runAvg speedWind from/ knotsBaromVisibWave heightAir tempDewpointWater temp
2016-May-28 02:28N 39°03' W 009°50'1212.7
2016-May-28 01:33N 38°52' W 009°50'1312.6
2016-May-28 00:31N 38°39' W 009°50'1111.5
2016-May-27 23:33N 38°37' W 009°36'10 9.5
2016-May-27 22:32N 38°40' W 009°24'7 7.6
2016-May-27 21:33N 38°41' W 009°15'2 0.2
2016-May-27 09:05N 38°41' W 009°12'0 0.0
2016-May-27 08:23N 38°41' W 009°12'0 0.1
2016-May-27 07:33N 38°41' W 009°12'9 8.6
2016-May-27 06:33N 38°37' W 009°22'5 5.1
2016-May-27 05:33N 38°39' W 009°29'4 4.1
2016-May-27 04:33N 38°35' W 009°30'7 6.9
2016-May-27 03:34N 38°29' W 009°34'8 7.6
2016-May-27 02:33N 38°22' W 009°39'1312.5
2016-May-27 01:31N 38°12' W 009°49'1312.8
2016-May-27 00:31N 38°02' W 009°60'  
2016-May-20 19:08N 32°18' W 009°17'1 1.8
2016-May-20 18:30N 32°18' W 009°19'  
Track history (hours):
 
Tides and Currents Weather Stations Pressure Air Temp Water Temp Dewpoint Dewpoint Depression Visibility Wind Speed Wind Dir Waves Ship Positions

Althea

Last reported at 2016-May-28 02:28 UTC. Time now 2016-May-29 03:48 UTC.
Position N 39°03' W 009°50'.

Length 170 m; draft 9.2 m.

Type: Cargo ship. MMSI: 215047000.

Date/timePositionNaut miles runAvg speedWind from/ knotsBaromVisibWave heightAir tempDewpointWater temp
2016-May-28 02:28N 39°03' W 009°50'1212.7
2016-May-28 01:33N 38°52' W 009°50'1312.6
2016-May-28 00:31N 38°39' W 009°50'1111.5
2016-May-27 23:33N 38°37' W 009°36'10 9.5
2016-May-27 22:32N 38°40' W 009°24'7 7.6
2016-May-27 21:33N 38°41' W 009°15'2 0.2
2016-May-27 09:05N 38°41' W 009°12'0 0.0
2016-May-27 08:23N 38°41' W 009°12'0 0.1
2016-May-27 07:33N 38°41' W 009°12'9 8.6
2016-May-27 06:33N 38°37' W 009°22'5 5.1
2016-May-27 05:33N 38°39' W 009°29'4 4.1
2016-May-27 04:33N 38°35' W 009°30'7 6.9
2016-May-27 03:34N 38°29' W 009°34'8 7.6
2016-May-27 02:33N 38°22' W 009°39'1312.5
2016-May-27 01:31N 38°12' W 009°49'1312.8
2016-May-27 00:31N 38°02' W 009°60'  
2016-May-20 19:08N 32°18' W 009°17'1 1.8
2016-May-20 18:30N 32°18' W 009°19'  

Dump ship's entire track history